Britton, Michigan
Current Conditions -  °F | °C
As of 4:25 AM on Monday 24 Nov 2014 (Local Time) from KADG Reporting Station
Light Rain Light Rain  
Wind Chill: 55°   Ceiling: 1400
Heat Index: 55°   Visibility: 10mi
Dew Point: 52°   Wind: 17mph
Humidity: 89%   Direction: 240°WSW
Pressure: 29.13"   Gusts: 30mph
Location:  41.99°N, 83.83°W
Report Text: KADG 240925Z AUTO 24015G26KT 10SM -RA OVC014 13/11 A2913 RMK AO2 PK WND 24026/0923 P0000 T01280111 $
Loading
Personal Weather Stations






























Interactive Weather Map New forecast layout! Learn more

10-Day Weather Forecast

Advertisements
Track Severe Weather on mobile